Time;durP1;ratioP1;P1;durP2;ratioP2;P2;SDS_P1;SDS_P2;PMS_P1;PMS_P2;Temp;Humidity;BMP_temperature;BMP_pressure;BME280_temperature;BME280_humidity;BME280_pressure;Samples;Min_cycle;Max_cycle;Signal;HPM_P1;HPM_P2
2023/08/01 00:00:08;;;;;;;8.52;1.35;;;;;;;;;;5089055;28;20048;-69
2023/08/01 00:02:36;;;;;;;4.38;1.63;;;;;;;;;;5084694;28;20545;-69
2023/08/01 00:05:04;;;;;;;7.00;1.80;;;;;;;;;;5088273;28;20700;-69
2023/08/01 00:07:31;;;;;;;7.65;1.88;;;;;;;;;;5087242;28;20048;-69
2023/08/01 00:09:57;;;;;;;3.00;1.40;;;;;;;;;;5087762;28;20149;-69
2023/08/01 00:12:25;;;;;;;5.53;1.83;;;;;;;;;;5085129;28;20056;-69
2023/08/01 00:14:53;;;;;;;7.45;1.77;;;;;;;;;;5086276;28;20143;-70
2023/08/01 00:17:20;;;;;;;11.50;1.90;;;;;;;;;;5087752;28;20047;-69
2023/08/01 00:19:49;;;;;;;8.55;1.65;;;;;;;;;;5087078;28;20051;-69
2023/08/01 00:22:16;;;;;;;11.93;1.92;;;;;;;;;;5080209;28;20048;-69
2023/08/01 00:24:43;;;;;;;6.70;1.73;;;;;;;;;;5081001;28;20056;-69
2023/08/01 00:27:11;;;;;;;5.25;1.63;;;;;;;;;;5087429;28;20052;-69
2023/08/01 00:29:38;;;;;;;6.72;1.60;;;;;;;;;;5078843;28;20066;-69
2023/08/01 00:32:06;;;;;;;5.40;2.00;;;;;;;;;;5082138;28;20470;-69
2023/08/01 00:34:33;;;;;;;5.65;1.63;;;;;;;;;;5084097;28;20052;-69
2023/08/01 00:37:02;;;;;;;11.30;2.15;;;;;;;;;;5087570;28;20055;-69
2023/08/01 00:39:29;;;;;;;7.68;2.10;;;;;;;;;;5084570;28;20048;-69
2023/08/01 00:41:56;;;;;;;6.60;1.50;;;;;;;;;;5086177;28;20040;-69
2023/08/01 00:44:23;;;;;;;7.03;2.20;;;;;;;;;;5084982;28;20051;-69
2023/08/01 00:46:51;;;;;;;7.38;1.90;;;;;;;;;;5085151;28;20040;-69
2023/08/01 00:49:18;;;;;;;3.53;1.40;;;;;;;;;;5084724;28;20051;-69
2023/08/01 00:51:45;;;;;;;5.35;1.63;;;;;;;;;;5085581;28;20055;-69
2023/08/01 00:54:14;;;;;;;3.55;1.25;;;;;;;;;;5085591;28;20059;-69
2023/08/01 00:56:41;;;;;;;5.80;1.58;;;;;;;;;;5087993;28;20048;-70
2023/08/01 00:59:09;;;;;;;6.57;1.88;;;;;;;;;;5087319;28;20054;-69
2023/08/01 01:01:36;;;;;;;7.38;1.90;;;;;;;;;;5085629;28;20074;-69
2023/08/01 01:04:03;;;;;;;5.40;1.50;;;;;;;;;;5087129;28;20051;-69
2023/08/01 01:06:34;;;;;;;3.67;1.55;;;;;;;;;;5086681;28;20079;-70
2023/08/01 01:09:01;;;;;;;7.13;2.03;;;;;;;;;;5061174;28;20070;-69
2023/08/01 01:11:31;;;;;;;6.50;1.60;;;;;;;;;;5086632;28;20131;-69
2023/08/01 01:13:58;;;;;;;5.25;1.50;;;;;;;;;;5083466;28;20098;-70
2023/08/01 01:16:25;;;;;;;7.55;1.83;;;;;;;;;;5086932;28;20070;-69
2023/08/01 01:18:52;;;;;;;7.47;1.60;;;;;;;;;;5067313;28;20070;-70
2023/08/01 01:21:21;;;;;;;3.50;1.45;;;;;;;;;;5084385;28;20094;-69
2023/08/01 01:23:49;;;;;;;3.10;1.60;;;;;;;;;;5086862;28;20062;-70
2023/08/01 01:26:20;;;;;;;4.43;1.75;;;;;;;;;;5087306;28;20048;-69
2023/08/01 01:28:48;;;;;;;4.05;1.75;;;;;;;;;;5087290;28;20505;-69
2023/08/01 01:31:16;;;;;;;5.63;1.88;;;;;;;;;;5084455;28;20486;-70
2023/08/01 01:33:44;;;;;;;8.63;2.45;;;;;;;;;;5080270;28;20082;-69
2023/08/01 01:36:11;;;;;;;12.25;2.38;;;;;;;;;;5075059;28;20873;-69
2023/08/01 01:38:40;;;;;;;8.32;2.25;;;;;;;;;;5082168;28;20055;-69
2023/08/01 01:41:07;;;;;;;7.57;1.95;;;;;;;;;;5083553;28;20495;-69
2023/08/01 01:43:34;;;;;;;6.18;1.65;;;;;;;;;;5084372;28;20052;-69
2023/08/01 01:46:01;;;;;;;4.20;1.92;;;;;;;;;;5084331;28;20490;-69
2023/08/01 01:48:29;;;;;;;5.88;1.90;;;;;;;;;;5080561;28;20044;-69
2023/08/01 01:50:56;;;;;;;7.00;2.28;;;;;;;;;;5082246;28;20048;-69
2023/08/01 01:53:23;;;;;;;6.63;2.38;;;;;;;;;;5081985;28;20406;-69
2023/08/01 01:55:52;;;;;;;8.65;2.33;;;;;;;;;;5086042;28;20075;-69
2023/08/01 01:58:19;;;;;;;5.28;2.40;;;;;;;;;;5086517;28;20044;-69
2023/08/01 02:00:46;;;;;;;5.03;2.28;;;;;;;;;;5085033;28;20053;-69
2023/08/01 02:03:13;;;;;;;6.45;2.42;;;;;;;;;;5067179;28;20066;-69
2023/08/01 02:05:41;;;;;;;6.68;2.30;;;;;;;;;;5084676;28;20048;-69
2023/08/01 02:08:08;;;;;;;6.95;2.47;;;;;;;;;;5059647;28;20056;-69
2023/08/01 02:10:36;;;;;;;6.28;2.30;;;;;;;;;;5086361;28;20494;-69
2023/08/01 02:13:04;;;;;;;6.30;2.53;;;;;;;;;;5064698;28;20056;-68
2023/08/01 02:15:31;;;;;;;4.57;2.10;;;;;;;;;;5062603;28;20052;-68
2023/08/01 02:17:59;;;;;;;5.82;2.30;;;;;;;;;;5065237;28;20059;-69
2023/08/01 02:20:28;;;;;;;7.88;2.25;;;;;;;;;;5066095;28;20047;-68
2023/08/01 02:22:55;;;;;;;7.45;2.70;;;;;;;;;;5061532;28;20059;-69
2023/08/01 02:25:22;;;;;;;7.22;2.40;;;;;;;;;;5065826;28;20040;-68
2023/08/01 02:27:49;;;;;;;4.47;1.90;;;;;;;;;;5068171;28;20056;-68
2023/08/01 02:30:18;;;;;;;7.20;1.85;;;;;;;;;;5067280;28;20049;-69
2023/08/01 02:32:45;;;;;;;4.55;1.55;;;;;;;;;;5068288;28;20048;-69
2023/08/01 02:35:13;;;;;;;2.30;1.33;;;;;;;;;;5065909;28;20063;-69
2023/08/01 02:37:40;;;;;;;8.50;1.73;;;;;;;;;;5070150;28;20075;-69
2023/08/01 02:40:10;;;;;;;10.05;1.67;;;;;;;;;;5069946;28;20051;-69
2023/08/01 02:42:37;;;;;;;5.50;1.10;;;;;;;;;;5067966;28;20048;-69
2023/08/01 02:45:05;;;;;;;13.65;1.25;;;;;;;;;;5066618;28;20052;-68
2023/08/01 02:47:33;;;;;;;7.38;1.50;;;;;;;;;;5067539;28;20152;-69
2023/08/01 02:50:00;;;;;;;6.32;1.05;;;;;;;;;;5069623;28;20049;-69
2023/08/01 02:52:28;;;;;;;5.45;0.98;;;;;;;;;;5069581;28;20048;-69
2023/08/01 02:54:55;;;;;;;5.00;0.80;;;;;;;;;;5068978;28;20049;-69
2023/08/01 02:57:23;;;;;;;6.07;0.77;;;;;;;;;;5065933;28;20052;-69
2023/08/01 02:59:50;;;;;;;1.88;0.70;;;;;;;;;;5065148;28;20057;-69
2023/08/01 03:02:18;;;;;;;1.90;0.63;;;;;;;;;;5066199;28;20047;-69
2023/08/01 03:04:47;;;;;;;2.38;0.63;;;;;;;;;;5066972;28;20435;-69
2023/08/01 03:07:14;;;;;;;3.10;0.82;;;;;;;;;;5069561;28;20052;-69
2023/08/01 03:09:42;;;;;;;8.10;0.85;;;;;;;;;;5068822;28;20372;-69
2023/08/01 03:12:09;;;;;;;5.60;0.80;;;;;;;;;;5078724;28;20048;-69
2023/08/01 03:14:37;;;;;;;11.77;1.00;;;;;;;;;;5087853;28;20139;-69
2023/08/01 03:17:04;;;;;;;3.75;0.80;;;;;;;;;;5086194;28;20097;-69
2023/08/01 03:19:32;;;;;;;3.70;0.73;;;;;;;;;;5089092;28;20044;-69
2023/08/01 03:22:01;;;;;;;5.97;0.82;;;;;;;;;;5086521;28;20051;-70
2023/08/01 03:24:28;;;;;;;3.28;0.80;;;;;;;;;;5085785;28;20079;-70
2023/08/01 03:26:56;;;;;;;5.28;0.73;;;;;;;;;;5088534;28;20047;-70
2023/08/01 03:29:23;;;;;;;5.82;1.67;;;;;;;;;;5088264;28;20475;-69
2023/08/01 03:31:50;;;;;;;5.68;0.85;;;;;;;;;;5085662;28;20052;-69
2023/08/01 03:34:17;;;;;;;3.67;0.80;;;;;;;;;;5087904;28;20075;-70
2023/08/01 03:36:44;;;;;;;5.32;0.90;;;;;;;;;;5069819;28;20499;-70
2023/08/01 03:39:13;;;;;;;2.50;1.00;;;;;;;;;;5086719;28;20526;-70
2023/08/01 03:41:40;;;;;;;4.00;0.90;;;;;;;;;;5068395;28;20114;-70
2023/08/01 03:44:08;;;;;;;8.27;1.00;;;;;;;;;;5085414;28;20566;-70
2023/08/01 03:46:35;;;;;;;4.65;0.90;;;;;;;;;;5083332;28;20048;-70
2023/08/01 03:49:02;;;;;;;2.25;1.00;;;;;;;;;;5086763;28;20105;-70
2023/08/01 03:51:29;;;;;;;7.80;1.15;;;;;;;;;;5084134;28;20439;-70
2023/08/01 03:53:56;;;;;;;6.03;0.90;;;;;;;;;;5088727;28;20376;-70
2023/08/01 03:56:25;;;;;;;3.92;0.70;;;;;;;;;;5088198;28;20045;-70
2023/08/01 03:58:52;;;;;;;6.97;0.77;;;;;;;;;;5089101;28;20459;-71
2023/08/01 04:01:20;;;;;;;3.38;0.75;;;;;;;;;;5066281;28;20055;-70
2023/08/01 04:03:47;;;;;;;4.47;0.80;;;;;;;;;;5088381;28;20082;-70
2023/08/01 04:06:15;;;;;;;4.88;0.98;;;;;;;;;;5087406;28;20052;-70
2023/08/01 04:08:42;;;;;;;5.88;1.13;;;;;;;;;;5077488;28;20048;-70
2023/08/01 04:11:11;;;;;;;3.90;1.02;;;;;;;;;;5075869;28;20044;-70
2023/08/01 04:13:39;;;;;;;7.00;1.00;;;;;;;;;;5087860;28;20094;-70
2023/08/01 04:16:07;;;;;;;6.15;1.30;;;;;;;;;;5085449;28;20055;-70
2023/08/01 04:18:34;;;;;;;8.13;1.27;;;;;;;;;;5069069;28;20066;-70
2023/08/01 04:21:01;;;;;;;3.90;1.20;;;;;;;;;;5087097;28;20097;-69
2023/08/01 04:23:28;;;;;;;7.07;1.70;;;;;;;;;;5089164;28;20493;-69
2023/08/01 04:25:56;;;;;;;4.32;1.48;;;;;;;;;;5086947;28;20083;-69
2023/08/01 04:28:23;;;;;;;2.80;1.10;;;;;;;;;;5079383;28;20411;-69
2023/08/01 04:30:52;;;;;;;5.97;1.35;;;;;;;;;;5086153;28;20054;-69
2023/08/01 04:33:20;;;;;;;4.65;1.88;;;;;;;;;;5088127;28;20047;-69
2023/08/01 04:35:49;;;;;;;7.95;1.45;;;;;;;;;;5087809;28;20047;-69
2023/08/01 04:38:16;;;;;;;4.85;1.40;;;;;;;;;;5087602;28;20051;-70
2023/08/01 04:40:43;;;;;;;3.78;1.30;;;;;;;;;;5085416;28;20545;-69
2023/08/01 04:43:10;;;;;;;7.20;1.73;;;;;;;;;;5083023;28;20056;-70
2023/08/01 04:45:38;;;;;;;7.25;1.50;;;;;;;;;;5084179;28;20055;-69
2023/08/01 04:48:07;;;;;;;4.28;1.60;;;;;;;;;;5082860;28;20044;-69
2023/08/01 04:50:34;;;;;;;3.55;1.48;;;;;;;;;;5084770;28;20407;-69
2023/08/01 04:53:01;;;;;;;5.35;1.50;;;;;;;;;;5084020;28;20403;-69
2023/08/01 04:55:28;;;;;;;10.93;1.70;;;;;;;;;;5082558;28;20052;-71
2023/08/01 04:57:55;;;;;;;3.55;1.35;;;;;;;;;;5082278;28;20421;-70
2023/08/01 05:00:23;;;;;;;4.65;1.27;;;;;;;;;;5087214;28;20051;-69
2023/08/01 05:02:50;;;;;;;6.88;1.30;;;;;;;;;;5086741;28;20090;-69
2023/08/01 05:05:19;;;;;;;4.00;1.40;;;;;;;;;;5085429;28;20075;-69
2023/08/01 05:07:46;;;;;;;3.25;1.30;;;;;;;;;;5068954;28;20052;-69
2023/08/01 05:10:13;;;;;;;3.83;1.00;;;;;;;;;;5087167;28;20380;-70
2023/08/01 05:12:41;;;;;;;4.88;0.90;;;;;;;;;;5083749;28;20550;-69
2023/08/01 05:15:08;;;;;;;4.72;0.95;;;;;;;;;;5088224;28;20119;-70
2023/08/01 05:17:36;;;;;;;8.07;0.90;;;;;;;;;;5084245;28;20071;-69
2023/08/01 05:20:04;;;;;;;2.92;0.60;;;;;;;;;;5085975;28;20036;-69
2023/08/01 05:22:33;;;;;;;3.88;0.63;;;;;;;;;;5087728;28;20040;-69
2023/08/01 05:25:01;;;;;;;12.48;1.30;;;;;;;;;;5085787;28;20044;-70
2023/08/01 05:27:29;;;;;;;6.63;0.80;;;;;;;;;;5083320;28;20058;-70
2023/08/01 05:29:56;;;;;;;10.77;0.90;;;;;;;;;;5079114;28;20387;-69
2023/08/01 05:32:23;;;;;;;7.97;0.70;;;;;;;;;;5087173;28;20055;-70
2023/08/01 05:34:50;;;;;;;4.45;0.70;;;;;;;;;;5088097;28;20048;-69
2023/08/01 05:37:18;;;;;;;8.63;0.60;;;;;;;;;;5086180;28;20048;-69
2023/08/01 05:39:46;;;;;;;8.18;0.90;;;;;;;;;;5080457;28;20044;-69
2023/08/01 05:42:14;;;;;;;3.88;0.73;;;;;;;;;;5085724;28;20131;-69
2023/08/01 05:44:41;;;;;;;5.13;0.85;;;;;;;;;;5064786;28;20052;-70
2023/08/01 05:47:08;;;;;;;4.65;0.70;;;;;;;;;;5067685;28;20051;-70
2023/08/01 05:49:35;;;;;;;1.75;0.60;;;;;;;;;;5084672;28;20045;-70
2023/08/01 05:52:02;;;;;;;3.17;0.88;;;;;;;;;;5086054;28;20346;-70
2023/08/01 05:54:30;;;;;;;5.13;0.75;;;;;;;;;;5087576;28;20056;-70
2023/08/01 05:56:58;;;;;;;6.63;1.10;;;;;;;;;;5081156;28;20521;-70
2023/08/01 05:59:26;;;;;;;8.85;1.02;;;;;;;;;;5083809;28;20402;-70
2023/08/01 06:01:54;;;;;;;5.13;0.80;;;;;;;;;;5088230;28;20143;-70
2023/08/01 06:04:21;;;;;;;7.85;0.80;;;;;;;;;;5092174;28;20048;-70
2023/08/01 06:06:48;;;;;;;4.32;0.90;;;;;;;;;;5088909;28;20386;-70
2023/08/01 06:09:15;;;;;;;2.60;0.75;;;;;;;;;;5087936;28;20070;-69
2023/08/01 06:11:43;;;;;;;6.07;0.88;;;;;;;;;;5084505;28;20060;-70
2023/08/01 06:14:12;;;;;;;7.90;0.70;;;;;;;;;;5087884;28;20051;-69
2023/08/01 06:16:39;;;;;;;6.22;0.85;;;;;;;;;;5090502;28;20047;-70
2023/08/01 06:19:06;;;;;;;3.58;0.80;;;;;;;;;;5088140;28;20047;-70
2023/08/01 06:21:33;;;;;;;3.55;0.52;;;;;;;;;;5085118;28;20066;-69
2023/08/01 06:24:01;;;;;;;4.15;0.63;;;;;;;;;;5085103;28;20363;-70
2023/08/01 06:26:28;;;;;;;4.05;0.70;;;;;;;;;;5083836;28;20483;-70
2023/08/01 06:28:55;;;;;;;3.10;0.70;;;;;;;;;;5090217;28;20048;-70
2023/08/01 06:31:24;;;;;;;8.63;0.85;;;;;;;;;;5090855;28;20048;-70
2023/08/01 06:33:51;;;;;;;9.07;0.98;;;;;;;;;;5090021;28;20059;-70
2023/08/01 06:36:18;;;;;;;6.22;0.85;;;;;;;;;;5078985;28;20072;-70
2023/08/01 06:38:46;;;;;;;8.30;0.93;;;;;;;;;;5083899;28;20048;-69
2023/08/01 06:41:13;;;;;;;5.57;0.93;;;;;;;;;;5088911;28;20457;-69
2023/08/01 06:43:40;;;;;;;3.15;0.90;;;;;;;;;;5088724;28;20075;-69
2023/08/01 06:46:08;;;;;;;3.95;0.77;;;;;;;;;;5089113;28;20153;-70
2023/08/01 06:48:36;;;;;;;3.60;0.85;;;;;;;;;;5089527;28;20090;-69
2023/08/01 06:51:04;;;;;;;2.75;1.00;;;;;;;;;;5084923;28;20044;-69
2023/08/01 06:53:31;;;;;;;7.20;1.30;;;;;;;;;;5086890;28;20481;-69
2023/08/01 06:55:58;;;;;;;4.43;1.00;;;;;;;;;;5085694;28;20048;-70
2023/08/01 06:58:25;;;;;;;3.67;0.88;;;;;;;;;;5088526;28;20108;-70
2023/08/01 07:00:53;;;;;;;1.67;0.88;;;;;;;;;;5088055;28;20665;-69
2023/08/01 07:03:20;;;;;;;5.72;1.00;;;;;;;;;;5085601;28;20040;-70
2023/08/01 07:05:48;;;;;;;6.80;1.20;;;;;;;;;;5084795;28;20056;-70
2023/08/01 07:08:16;;;;;;;4.75;1.10;;;;;;;;;;5086723;28;20051;-70
2023/08/01 07:10:43;;;;;;;6.10;1.02;;;;;;;;;;5084029;28;20048;-70
2023/08/01 07:13:10;;;;;;;3.80;0.93;;;;;;;;;;5069817;28;20066;-70
2023/08/01 07:15:37;;;;;;;6.55;1.13;;;;;;;;;;5088581;28;20497;-70
2023/08/01 07:18:05;;;;;;;6.30;1.02;;;;;;;;;;5083964;28;20051;-70
2023/08/01 07:20:32;;;;;;;6.18;0.82;;;;;;;;;;5084039;28;20053;-70
2023/08/01 07:23:00;;;;;;;5.97;1.13;;;;;;;;;;5085428;28;20078;-70
2023/08/01 07:25:28;;;;;;;16.42;1.15;;;;;;;;;;5088229;28;20253;-70
2023/08/01 07:27:55;;;;;;;5.10;0.90;;;;;;;;;;5088548;28;20048;-70
2023/08/01 07:30:22;;;;;;;5.45;1.00;;;;;;;;;;5088679;28;20043;-70
2023/08/01 07:32:49;;;;;;;5.82;0.88;;;;;;;;;;5088012;28;20047;-70
2023/08/01 07:35:17;;;;;;;3.50;0.90;;;;;;;;;;5084002;28;20127;-70
2023/08/01 07:37:44;;;;;;;3.33;0.90;;;;;;;;;;5089532;28;20059;-70
2023/08/01 07:40:13;;;;;;;5.70;0.95;;;;;;;;;;5085933;28;20052;-70
2023/08/01 07:42:40;;;;;;;4.75;1.00;;;;;;;;;;5083013;28;20056;-70
2023/08/01 07:45:08;;;;;;;5.53;1.13;;;;;;;;;;5066003;28;20066;-70
2023/08/01 07:47:35;;;;;;;3.67;0.93;;;;;;;;;;5084182;28;20051;-69
2023/08/01 07:50:02;;;;;;;5.40;1.13;;;;;;;;;;5085708;28;20058;-69
2023/08/01 07:52:30;;;;;;;5.38;1.10;;;;;;;;;;5078803;28;20044;-69
2023/08/01 07:54:58;;;;;;;6.15;1.10;;;;;;;;;;5069155;28;20052;-70
2023/08/01 07:57:27;;;;;;;5.45;1.65;;;;;;;;;;5089126;28;20048;-70
2023/08/01 07:59:54;;;;;;;6.60;1.35;;;;;;;;;;5082379;28;20048;-70
2023/08/01 08:02:21;;;;;;;6.45;1.33;;;;;;;;;;5085427;28;20051;-70
2023/08/01 08:04:49;;;;;;;7.13;1.30;;;;;;;;;;5084544;28;20063;-70
2023/08/01 08:07:16;;;;;;;4.60;1.65;;;;;;;;;;5087355;28;20084;-70
2023/08/01 08:09:43;;;;;;;6.47;1.80;;;;;;;;;;5087837;28;20506;-70
2023/08/01 08:12:10;;;;;;;4.10;1.42;;;;;;;;;;5084290;28;20048;-69
2023/08/01 08:14:39;;;;;;;2.30;1.10;;;;;;;;;;5085552;28;20503;-70
2023/08/01 08:17:06;;;;;;;4.43;1.15;;;;;;;;;;5088674;28;20055;-70
2023/08/01 08:19:33;;;;;;;3.58;1.00;;;;;;;;;;5086978;28;20537;-69
2023/08/01 08:22:01;;;;;;;15.85;1.23;;;;;;;;;;5079473;28;20050;-69
2023/08/01 08:24:28;;;;;;;7.22;0.80;;;;;;;;;;5085266;28;20052;-70
2023/08/01 08:26:55;;;;;;;2.88;0.75;;;;;;;;;;5087326;28;20051;-70
2023/08/01 08:29:22;;;;;;;2.03;0.60;;;;;;;;;;5086356;28;20483;-70
2023/08/01 08:31:51;;;;;;;2.47;0.90;;;;;;;;;;5087700;28;20483;-70
2023/08/01 08:34:19;;;;;;;4.68;0.60;;;;;;;;;;5087437;28;20749;-70
2023/08/01 08:36:47;;;;;;;5.38;0.93;;;;;;;;;;5084223;28;20056;-70
2023/08/01 08:39:14;;;;;;;3.88;1.15;;;;;;;;;;5088078;28;20075;-70
2023/08/01 08:41:47;;;;;;;5.43;1.02;;;;;;;;;;5070602;28;20059;-70
2023/08/01 08:44:16;;;;;;;6.65;1.35;;;;;;;;;;5086169;28;20055;-70
2023/08/01 08:46:44;;;;;;;5.75;1.10;;;;;;;;;;5068332;28;20044;-70
2023/08/01 08:49:15;;;;;;;6.47;1.33;;;;;;;;;;5085232;28;20498;-70
2023/08/01 08:51:45;;;;;;;9.88;1.40;;;;;;;;;;5084495;28;20407;-70
2023/08/01 08:54:13;;;;;;;4.95;1.20;;;;;;;;;;5064730;28;20087;-70
2023/08/01 08:56:40;;;;;;;6.72;1.20;;;;;;;;;;5086557;28;20611;-70
2023/08/01 08:59:09;;;;;;;2.53;0.90;;;;;;;;;;5065723;28;20380;-70
2023/08/01 09:01:37;;;;;;;2.13;0.80;;;;;;;;;;5086534;28;20051;-70
2023/08/01 09:04:04;;;;;;;7.13;0.82;;;;;;;;;;5085758;28;20045;-70
2023/08/01 09:06:34;;;;;;;2.05;0.80;;;;;;;;;;5087102;28;20506;-69
2023/08/01 09:09:04;;;;;;;2.45;0.70;;;;;;;;;;5089510;28;20054;-69
2023/08/01 09:11:36;;;;;;;4.22;0.85;;;;;;;;;;5067570;28;20115;-69
2023/08/01 09:14:04;;;;;;;4.90;0.90;;;;;;;;;;5083036;28;20056;-70
2023/08/01 09:16:31;;;;;;;3.92;0.90;;;;;;;;;;5086487;28;20040;-69
2023/08/01 09:18:58;;;;;;;5.53;0.95;;;;;;;;;;5067150;28;20044;-69
2023/08/01 09:21:26;;;;;;;4.80;1.17;;;;;;;;;;5083651;28;20044;-70
2023/08/01 09:23:55;;;;;;;5.93;1.30;;;;;;;;;;5084026;28;20051;-69
2023/08/01 09:26:22;;;;;;;4.40;1.02;;;;;;;;;;5081631;28;20071;-70
2023/08/01 09:28:57;;;;;;;8.25;1.10;;;;;;;;;;5087318;28;20514;-69
2023/08/01 09:31:28;;;;;;;5.13;1.20;;;;;;;;;;5085924;28;20044;-70
2023/08/01 09:33:55;;;;;;;10.02;1.08;;;;;;;;;;5081616;28;20062;-70
2023/08/01 09:36:22;;;;;;;5.05;0.80;;;;;;;;;;5089232;28;20490;-70
2023/08/01 09:38:50;;;;;;;2.75;0.70;;;;;;;;;;5093390;28;20052;-70
2023/08/01 09:41:20;;;;;;;7.53;0.60;;;;;;;;;;5091784;28;20047;-70
2023/08/01 09:43:48;;;;;;;4.10;0.80;;;;;;;;;;5091440;28;20044;-70
2023/08/01 09:46:15;;;;;;;3.25;0.77;;;;;;;;;;5088918;28;20055;-71
2023/08/01 09:48:43;;;;;;;4.38;0.80;;;;;;;;;;5094078;28;20050;-70
2023/08/01 09:51:11;;;;;;;4.10;0.80;;;;;;;;;;5093843;28;20055;-70
2023/08/01 09:53:48;;;;;;;2.78;0.70;;;;;;;;;;5086532;28;20052;-70
2023/08/01 09:56:17;;;;;;;2.42;0.65;;;;;;;;;;5091670;28;20044;-71
2023/08/01 09:58:46;;;;;;;6.22;1.33;;;;;;;;;;5084799;28;20108;-70
2023/08/01 10:01:14;;;;;;;3.42;0.70;;;;;;;;;;5092414;28;20056;-70
2023/08/01 10:03:45;;;;;;;3.30;0.85;;;;;;;;;;5093884;28;20040;-70
2023/08/01 10:06:14;;;;;;;4.00;0.98;;;;;;;;;;5092360;28;20411;-70
2023/08/01 10:08:41;;;;;;;4.13;0.70;;;;;;;;;;5089260;28;20039;-69
2023/08/01 10:11:08;;;;;;;4.28;1.10;;;;;;;;;;5084854;28;20051;-71
2023/08/01 10:13:36;;;;;;;4.32;1.05;;;;;;;;;;5074654;28;20056;-70
2023/08/01 10:16:05;;;;;;;3.47;0.82;;;;;;;;;;5087244;28;20127;-71
2023/08/01 10:18:32;;;;;;;2.45;0.88;;;;;;;;;;5093830;28;20050;-70
2023/08/01 10:21:00;;;;;;;4.38;0.82;;;;;;;;;;5091158;28;20504;-70
2023/08/01 10:23:28;;;;;;;8.48;1.20;;;;;;;;;;5085463;28;20048;-69
2023/08/01 10:25:56;;;;;;;5.00;1.20;;;;;;;;;;5090264;28;20464;-71
2023/08/01 10:28:32;;;;;;;3.17;0.70;;;;;;;;;;5091637;28;20044;-70
2023/08/01 10:31:09;;;;;;;5.00;0.90;;;;;;;;;;5090890;28;20052;-69
2023/08/01 10:33:36;;;;;;;3.25;0.80;;;;;;;;;;5092764;28;20051;-70
2023/08/01 10:36:13;;;;;;;3.67;0.77;;;;;;;;;;5093090;28;20054;-70
2023/08/01 10:38:46;;;;;;;3.10;0.88;;;;;;;;;;5092707;28;20101;-69
2023/08/01 10:41:19;;;;;;;2.88;0.85;;;;;;;;;;5092530;28;20052;-70
2023/08/01 10:43:47;;;;;;;4.95;0.93;;;;;;;;;;5091340;28;20040;-70
2023/08/01 10:46:15;;;;;;;1.30;0.60;;;;;;;;;;5075930;28;20060;-70
2023/08/01 10:48:52;;;;;;;4.40;0.68;;;;;;;;;;5088643;28;20052;-70
2023/08/01 10:51:20;;;;;;;3.65;0.50;;;;;;;;;;5091160;28;20414;-71
2023/08/01 10:53:47;;;;;;;5.05;0.70;;;;;;;;;;5068791;28;20136;-70
2023/08/01 10:56:19;;;;;;;3.05;0.70;;;;;;;;;;5085319;28;20443;-70
2023/08/01 10:58:46;;;;;;;1.85;0.52;;;;;;;;;;5086691;28;20098;-69
2023/08/01 11:01:13;;;;;;;3.83;0.80;;;;;;;;;;5086705;28;20047;-69
2023/08/01 11:03:42;;;;;;;5.25;0.57;;;;;;;;;;5082396;28;20062;-70
2023/08/01 11:06:09;;;;;;;5.28;1.00;;;;;;;;;;5086035;28;20064;-69
2023/08/01 11:08:37;;;;;;;3.70;0.70;;;;;;;;;;5070006;28;20516;-71
2023/08/01 11:11:06;;;;;;;6.75;0.77;;;;;;;;;;5083148;28;20056;-69
2023/08/01 11:13:34;;;;;;;2.78;0.80;;;;;;;;;;5082774;28;20055;-69
2023/08/01 11:16:03;;;;;;;2.13;0.90;;;;;;;;;;5085003;28;20117;-69
2023/08/01 11:18:31;;;;;;;2.72;0.85;;;;;;;;;;5089606;28;20120;-70
2023/08/01 11:20:59;;;;;;;5.80;1.15;;;;;;;;;;5069273;28;20109;-69
2023/08/01 11:23:30;;;;;;;4.75;0.80;;;;;;;;;;5086495;28;20044;-70
2023/08/01 11:25:57;;;;;;;3.55;0.95;;;;;;;;;;5086638;28;20526;-71
2023/08/01 11:28:25;;;;;;;5.18;0.90;;;;;;;;;;5087784;28;20067;-70
2023/08/01 11:30:52;;;;;;;4.97;0.75;;;;;;;;;;5089553;28;20056;-69
2023/08/01 11:33:21;;;;;;;4.20;0.85;;;;;;;;;;5088136;28;20059;-69
2023/08/01 11:35:53;;;;;;;4.70;0.70;;;;;;;;;;5089040;28;20059;-69
2023/08/01 11:38:22;;;;;;;3.78;0.98;;;;;;;;;;5070322;28;20095;-69
2023/08/01 11:40:50;;;;;;;5.63;1.10;;;;;;;;;;5086421;28;20048;-69
2023/08/01 11:43:17;;;;;;;2.88;0.63;;;;;;;;;;5088765;28;20040;-69
2023/08/01 11:45:51;;;;;;;6.97;0.80;;;;;;;;;;5070386;28;20122;-69
2023/08/01 11:48:19;;;;;;;4.20;1.38;;;;;;;;;;5068743;28;20052;-69
2023/08/01 11:50:47;;;;;;;5.82;0.90;;;;;;;;;;5088698;28;20056;-69
2023/08/01 11:53:22;;;;;;;2.25;0.70;;;;;;;;;;5087690;28;20040;-69
2023/08/01 11:55:52;;;;;;;5.80;0.95;;;;;;;;;;5087502;28;20044;-69
2023/08/01 11:58:29;;;;;;;5.60;1.10;;;;;;;;;;5086786;28;20135;-69
2023/08/01 12:01:03;;;;;;;6.30;1.15;;;;;;;;;;5079475;28;20054;-68
2023/08/01 12:03:31;;;;;;;4.70;1.20;;;;;;;;;;5084860;28;20059;-68
2023/08/01 12:06:04;;;;;;;4.05;0.80;;;;;;;;;;5082357;28;20040;-69
2023/08/01 12:08:36;;;;;;;3.70;1.10;;;;;;;;;;5086828;28;20052;-69
2023/08/01 12:11:03;;;;;;;2.55;0.70;;;;;;;;;;5083137;28;20063;-69
2023/08/01 12:13:30;;;;;;;7.70;1.25;;;;;;;;;;5088187;28;20040;-69
2023/08/01 12:15:58;;;;;;;4.40;0.93;;;;;;;;;;5083393;28;20123;-69
2023/08/01 12:18:26;;;;;;;2.13;0.70;;;;;;;;;;5088789;28;20391;-68
2023/08/01 12:20:53;;;;;;;2.22;0.80;;;;;;;;;;5088254;28;20043;-69
2023/08/01 12:23:21;;;;;;;4.03;0.85;;;;;;;;;;5062800;28;20052;-68
2023/08/01 12:25:50;;;;;;;3.08;0.77;;;;;;;;;;5085956;28;20067;-68
2023/08/01 12:28:17;;;;;;;3.97;0.73;;;;;;;;;;5088673;28;20044;-69
2023/08/01 12:30:45;;;;;;;2.60;0.80;;;;;;;;;;5088059;28;20403;-69
2023/08/01 12:33:13;;;;;;;2.58;0.80;;;;;;;;;;5082276;28;20455;-69
2023/08/01 12:35:41;;;;;;;5.28;0.77;;;;;;;;;;5063967;28;20063;-69
2023/08/01 12:38:08;;;;;;;5.68;1.10;;;;;;;;;;5076501;28;20049;-69
2023/08/01 12:40:36;;;;;;;5.80;0.95;;;;;;;;;;5080631;28;20048;-69
2023/08/01 12:43:05;;;;;;;2.75;0.90;;;;;;;;;;5086871;28;20052;-69
2023/08/01 12:45:32;;;;;;;3.40;0.80;;;;;;;;;;5085982;28;20060;-68
2023/08/01 12:48:00;;;;;;;2.70;0.80;;;;;;;;;;5088074;28;20452;-70
2023/08/01 12:50:27;;;;;;;3.95;0.68;;;;;;;;;;5087980;28;20063;-68
2023/08/01 12:52:54;;;;;;;2.05;0.65;;;;;;;;;;5085581;28;20403;-69
2023/08/01 12:55:21;;;;;;;6.43;0.80;;;;;;;;;;5079483;28;20508;-69
2023/08/01 12:57:49;;;;;;;1.23;0.50;;;;;;;;;;5086796;28;20060;-69
2023/08/01 13:00:18;;;;;;;3.92;0.85;;;;;;;;;;5067110;28;20048;-68
2023/08/01 13:02:47;;;;;;;2.65;0.82;;;;;;;;;;5088625;28;20040;-68
2023/08/01 13:05:14;;;;;;;1.48;0.47;;;;;;;;;;5085058;28;20066;-68
2023/08/01 13:07:41;;;;;;;2.42;0.73;;;;;;;;;;5087565;28;20485;-69
2023/08/01 13:10:09;;;;;;;5.15;1.08;;;;;;;;;;5084035;28;20047;-69
2023/08/01 13:12:36;;;;;;;2.25;0.80;;;;;;;;;;5076961;28;20067;-68
2023/08/01 13:15:04;;;;;;;8.38;1.00;;;;;;;;;;5069007;28;20044;-69
2023/08/01 13:17:33;;;;;;;3.38;0.68;;;;;;;;;;5083830;28;20047;-68
2023/08/01 13:20:00;;;;;;;3.13;0.88;;;;;;;;;;5082861;28;20044;-68
2023/08/01 13:22:27;;;;;;;3.92;0.80;;;;;;;;;;5084357;28;20044;-69
2023/08/01 13:24:54;;;;;;;2.45;0.60;;;;;;;;;;5085767;28;20051;-69
2023/08/01 13:27:22;;;;;;;5.20;1.00;;;;;;;;;;5085974;28;20052;-69
2023/08/01 13:29:51;;;;;;;4.10;0.93;;;;;;;;;;5085488;28;20073;-68
2023/08/01 13:32:18;;;;;;;4.22;0.70;;;;;;;;;;5087991;28;20080;-69
2023/08/01 13:34:47;;;;;;;3.50;0.90;;;;;;;;;;5085567;28;20044;-69
2023/08/01 13:37:14;;;;;;;3.63;0.60;;;;;;;;;;5063619;28;20075;-69
2023/08/01 13:39:42;;;;;;;6.47;0.85;;;;;;;;;;5087200;28;20406;-69
2023/08/01 13:42:09;;;;;;;5.15;1.10;;;;;;;;;;5081087;28;20116;-69
2023/08/01 13:44:36;;;;;;;3.22;0.60;;;;;;;;;;5082445;28;20044;-70
2023/08/01 13:47:04;;;;;;;0.80;0.47;;;;;;;;;;5082563;28;20048;-69
2023/08/01 13:49:32;;;;;;;4.03;0.55;;;;;;;;;;5080957;28;20492;-70
2023/08/01 13:52:01;;;;;;;8.40;0.80;;;;;;;;;;5085667;28;20075;-68
2023/08/01 13:54:28;;;;;;;1.88;0.50;;;;;;;;;;5068503;28;20051;-68
2023/08/01 13:56:56;;;;;;;3.33;0.70;;;;;;;;;;5084625;28;20077;-69
2023/08/01 13:59:23;;;;;;;1.90;0.55;;;;;;;;;;5075548;28;20067;-71
2023/08/01 14:01:50;;;;;;;1.67;0.40;;;;;;;;;;5083848;28;20070;-69
2023/08/01 14:04:17;;;;;;;1.50;0.50;;;;;;;;;;5080678;28;20581;-69
2023/08/01 14:06:45;;;;;;;2.22;0.47;;;;;;;;;;5083860;28;20070;-69
2023/08/01 14:09:13;;;;;;;1.92;0.52;;;;;;;;;;5067734;28;20147;-69
2023/08/01 14:11:41;;;;;;;0.95;0.40;;;;;;;;;;5083560;28;20040;-70
2023/08/01 14:14:08;;;;;;;1.23;0.60;;;;;;;;;;5075322;28;20049;-69
2023/08/01 14:16:35;;;;;;;5.80;0.70;;;;;;;;;;5077996;28;20056;-69
2023/08/01 14:19:03;;;;;;;5.13;0.80;;;;;;;;;;5080879;28;20056;-69
2023/08/01 14:21:31;;;;;;;3.22;0.95;;;;;;;;;;5079870;28;20055;-68
2023/08/01 14:23:58;;;;;;;3.35;0.80;;;;;;;;;;5090392;28;20051;-68
2023/08/01 14:26:26;;;;;;;3.17;0.65;;;;;;;;;;5086639;28;20063;-69
2023/08/01 14:28:54;;;;;;;4.97;0.70;;;;;;;;;;5081405;28;20157;-68
2023/08/01 14:31:21;;;;;;;4.00;0.68;;;;;;;;;;5090623;28;20036;-69
2023/08/01 14:33:48;;;;;;;3.17;0.82;;;;;;;;;;5090566;28;20052;-69
2023/08/01 14:36:15;;;;;;;4.55;0.98;;;;;;;;;;5080806;28;20072;-69
2023/08/01 14:38:42;;;;;;;1.55;0.47;;;;;;;;;;5078295;28;20060;-69
2023/08/01 14:41:10;;;;;;;4.38;0.80;;;;;;;;;;5083812;28;20044;-69
2023/08/01 14:43:38;;;;;;;3.08;0.60;;;;;;;;;;5090519;28;21099;-69
2023/08/01 14:46:06;;;;;;;2.92;0.70;;;;;;;;;;5082276;28;20431;-69